sensor_id;sensor_type;location;lat;lon;timestamp;pressure;altitude;pressure_sealevel;temperature;humidity
70103;BME280;57470;50.034;15.256;2023-06-19T00:00:43;99241.84;;;17.04;85.08
70103;BME280;57470;50.034;15.256;2023-06-19T00:03:09;99237.75;;;17.00;85.50
70103;BME280;57470;50.034;15.256;2023-06-19T00:05:34;99234.63;;;17.05;85.31
70103;BME280;57470;50.034;15.256;2023-06-19T00:07:59;99237.31;;;17.05;85.42
70103;BME280;57470;50.034;15.256;2023-06-19T00:10:25;99237.59;;;16.84;86.29
70103;BME280;57470;50.034;15.256;2023-06-19T00:12:50;99241.31;;;16.73;87.53
70103;BME280;57470;50.034;15.256;2023-06-19T00:15:16;99240.88;;;16.78;86.89
70103;BME280;57470;50.034;15.256;2023-06-19T00:17:41;99241.31;;;16.73;86.68
70103;BME280;57470;50.034;15.256;2023-06-19T00:20:07;99236.84;;;16.64;86.36
70103;BME280;57470;50.034;15.256;2023-06-19T00:22:32;99238.81;;;16.72;85.62
70103;BME280;57470;50.034;15.256;2023-06-19T00:24:58;99235.28;;;16.71;85.79
70103;BME280;57470;50.034;15.256;2023-06-19T00:27:24;99238.53;;;16.65;86.47
70103;BME280;57470;50.034;15.256;2023-06-19T00:29:51;99234.94;;;16.37;87.90
70103;BME280;57470;50.034;15.256;2023-06-19T00:32:16;99240.84;;;16.50;88.31
70103;BME280;57470;50.034;15.256;2023-06-19T00:34:42;99243.44;;;16.42;88.60
70103;BME280;57470;50.034;15.256;2023-06-19T00:37:09;99238.25;;;16.59;87.02
70103;BME280;57470;50.034;15.256;2023-06-19T00:39:35;99247.44;;;16.56;87.45
70103;BME280;57470;50.034;15.256;2023-06-19T00:42:00;99244.47;;;16.69;87.54
70103;BME280;57470;50.034;15.256;2023-06-19T00:44:26;99235.84;;;16.56;87.24
70103;BME280;57470;50.034;15.256;2023-06-19T00:46:56;99240.13;;;16.48;87.53
70103;BME280;57470;50.034;15.256;2023-06-19T00:49:22;99232.66;;;16.52;88.17
70103;BME280;57470;50.034;15.256;2023-06-19T00:51:47;99234.06;;;16.19;89.77
70103;BME280;57470;50.034;15.256;2023-06-19T00:54:14;99243.03;;;15.91;91.07
70103;BME280;57470;50.034;15.256;2023-06-19T00:56:40;99233.22;;;16.19;89.37
70103;BME280;57470;50.034;15.256;2023-06-19T00:59:08;99237.03;;;16.16;89.24
70103;BME280;57470;50.034;15.256;2023-06-19T01:01:37;99230.59;;;15.99;89.96
70103;BME280;57470;50.034;15.256;2023-06-19T01:04:03;99226.22;;;15.89;90.35
70103;BME280;57470;50.034;15.256;2023-06-19T01:06:32;99232.94;;;16.02;90.15
70103;BME280;57470;50.034;15.256;2023-06-19T01:09:08;99229.09;;;16.24;88.89
70103;BME280;57470;50.034;15.256;2023-06-19T01:12:19;99228.44;;;16.03;89.44
70103;BME280;57470;50.034;15.256;2023-06-19T01:14:59;99225.53;;;15.67;91.87
70103;BME280;57470;50.034;15.256;2023-06-19T01:17:27;99223.53;;;15.89;90.82
70103;BME280;57470;50.034;15.256;2023-06-19T01:19:54;99223.81;;;15.95;89.50
70103;BME280;57470;50.034;15.256;2023-06-19T01:22:26;99230.75;;;15.79;90.18
70103;BME280;57470;50.034;15.256;2023-06-19T01:24:52;99235.00;;;15.43;92.09
70103;BME280;57470;50.034;15.256;2023-06-19T01:27:17;99235.00;;;15.52;91.71
70103;BME280;57470;50.034;15.256;2023-06-19T01:29:43;99230.16;;;15.85;89.79
70103;BME280;57470;50.034;15.256;2023-06-19T01:34:57;99226.38;;;15.87;89.63
70103;BME280;57470;50.034;15.256;2023-06-19T01:37:25;99231.31;;;15.53;91.35
70103;BME280;57470;50.034;15.256;2023-06-19T01:39:54;99227.41;;;15.48;92.03
70103;BME280;57470;50.034;15.256;2023-06-19T01:42:21;99226.41;;;15.68;90.09
70103;BME280;57470;50.034;15.256;2023-06-19T01:44:47;99228.78;;;15.81;89.07
70103;BME280;57470;50.034;15.256;2023-06-19T01:47:12;99228.03;;;15.98;88.17
70103;BME280;57470;50.034;15.256;2023-06-19T01:49:38;99232.97;;;15.93;88.26
70103;BME280;57470;50.034;15.256;2023-06-19T01:52:04;99226.53;;;15.76;88.98
70103;BME280;57470;50.034;15.256;2023-06-19T01:54:29;99230.47;;;15.91;88.62
70103;BME280;57470;50.034;15.256;2023-06-19T01:56:57;99232.56;;;15.88;88.29
70103;BME280;57470;50.034;15.256;2023-06-19T01:59:22;99233.38;;;16.07;86.87
70103;BME280;57470;50.034;15.256;2023-06-19T02:01:48;99231.09;;;16.12;87.27
70103;BME280;57470;50.034;15.256;2023-06-19T02:04:13;99234.66;;;16.03;87.28
70103;BME280;57470;50.034;15.256;2023-06-19T02:06:38;99227.56;;;15.65;89.25
70103;BME280;57470;50.034;15.256;2023-06-19T02:09:04;99242.16;;;15.03;91.76
70103;BME280;57470;50.034;15.256;2023-06-19T02:11:29;99235.66;;;14.96;93.32
70103;BME280;57470;50.034;15.256;2023-06-19T02:13:54;99229.63;;;15.14;92.06
70103;BME280;57470;50.034;15.256;2023-06-19T02:16:20;99235.97;;;15.42;90.97
70103;BME280;57470;50.034;15.256;2023-06-19T02:18:45;99230.91;;;15.38;91.00
70103;BME280;57470;50.034;15.256;2023-06-19T02:21:11;99225.72;;;15.56;90.07
70103;BME280;57470;50.034;15.256;2023-06-19T02:23:36;99226.84;;;15.63;88.58
70103;BME280;57470;50.034;15.256;2023-06-19T02:26:01;99227.53;;;15.27;91.14
70103;BME280;57470;50.034;15.256;2023-06-19T02:28:27;99231.47;;;15.23;91.12
70103;BME280;57470;50.034;15.256;2023-06-19T02:30:54;99224.16;;;15.54;88.87
70103;BME280;57470;50.034;15.256;2023-06-19T02:33:19;99230.06;;;15.48;89.33
70103;BME280;57470;50.034;15.256;2023-06-19T02:35:45;99231.75;;;15.20;90.42
70103;BME280;57470;50.034;15.256;2023-06-19T02:38:10;99220.88;;;15.50;89.36
70103;BME280;57470;50.034;15.256;2023-06-19T02:40:38;99227.13;;;15.60;88.07
70103;BME280;57470;50.034;15.256;2023-06-19T02:43:03;99228.22;;;15.67;87.65
70103;BME280;57470;50.034;15.256;2023-06-19T02:45:29;99229.06;;;15.68;87.96
70103;BME280;57470;50.034;15.256;2023-06-19T02:47:54;99233.16;;;15.53;88.09
70103;BME280;57470;50.034;15.256;2023-06-19T02:50:19;99220.47;;;15.45;88.26
70103;BME280;57470;50.034;15.256;2023-06-19T02:52:45;99226.69;;;15.36;88.73
70103;BME280;57470;50.034;15.256;2023-06-19T02:55:10;99224.72;;;15.28;89.24
70103;BME280;57470;50.034;15.256;2023-06-19T02:57:35;99213.16;;;15.37;89.37
70103;BME280;57470;50.034;15.256;2023-06-19T03:00:01;99220.88;;;15.50;88.48
70103;BME280;57470;50.034;15.256;2023-06-19T03:02:27;99214.69;;;15.11;91.39
70103;BME280;57470;50.034;15.256;2023-06-19T03:04:52;99221.66;;;14.64;95.07
70103;BME280;57470;50.034;15.256;2023-06-19T03:07:18;99224.44;;;14.53;96.31
70103;BME280;57470;50.034;15.256;2023-06-19T03:09:43;99232.91;;;14.58;96.21
70103;BME280;57470;50.034;15.256;2023-06-19T03:12:09;99226.19;;;14.73;95.81
70103;BME280;57470;50.034;15.256;2023-06-19T03:14:34;99219.94;;;14.53;96.10
70103;BME280;57470;50.034;15.256;2023-06-19T03:17:00;99229.75;;;14.43;96.74
70103;BME280;57470;50.034;15.256;2023-06-19T03:19:25;99238.06;;;14.40;98.36
70103;BME280;57470;50.034;15.256;2023-06-19T03:21:50;99232.34;;;14.34;99.28
70103;BME280;57470;50.034;15.256;2023-06-19T03:24:16;99235.31;;;14.31;99.39
70103;BME280;57470;50.034;15.256;2023-06-19T03:26:41;99235.16;;;14.22;100.00
70103;BME280;57470;50.034;15.256;2023-06-19T03:29:07;99237.72;;;14.64;99.03
70103;BME280;57470;50.034;15.256;2023-06-19T03:31:32;99233.44;;;15.01;97.05
70103;BME280;57470;50.034;15.256;2023-06-19T03:33:58;99230.44;;;15.05;96.72
70103;BME280;57470;50.034;15.256;2023-06-19T03:36:23;99235.41;;;14.99;96.56
70103;BME280;57470;50.034;15.256;2023-06-19T03:38:48;99237.13;;;15.29;95.52
70103;BME280;57470;50.034;15.256;2023-06-19T03:41:14;99232.03;;;15.26;94.73
70103;BME280;57470;50.034;15.256;2023-06-19T03:43:39;99225.38;;;15.30;94.18
70103;BME280;57470;50.034;15.256;2023-06-19T03:46:05;99228.38;;;15.18;95.62
70103;BME280;57470;50.034;15.256;2023-06-19T03:48:30;99233.16;;;15.24;94.97
70103;BME280;57470;50.034;15.256;2023-06-19T03:50:56;99223.16;;;15.26;95.62
70103;BME280;57470;50.034;15.256;2023-06-19T03:53:22;99222.00;;;15.67;93.85
70103;BME280;57470;50.034;15.256;2023-06-19T03:55:47;99224.88;;;15.56;94.13
70103;BME280;57470;50.034;15.256;2023-06-19T03:58:13;99230.34;;;15.35;95.32
70103;BME280;57470;50.034;15.256;2023-06-19T04:00:38;99232.03;;;15.46;94.80
70103;BME280;57470;50.034;15.256;2023-06-19T04:03:03;99228.34;;;15.75;93.92
70103;BME280;57470;50.034;15.256;2023-06-19T04:05:29;99228.16;;;16.06;92.53
70103;BME280;57470;50.034;15.256;2023-06-19T04:07:54;99237.94;;;15.88;92.34
70103;BME280;57470;50.034;15.256;2023-06-19T04:10:20;99229.78;;;15.80;93.05
70103;BME280;57470;50.034;15.256;2023-06-19T04:12:46;99239.38;;;15.24;96.39
70103;BME280;57470;50.034;15.256;2023-06-19T04:15:13;99232.88;;;15.75;95.55
70103;BME280;57470;50.034;15.256;2023-06-19T04:17:38;99234.00;;;15.92;93.88
70103;BME280;57470;50.034;15.256;2023-06-19T04:20:04;99235.97;;;15.80;93.26
70103;BME280;57470;50.034;15.256;2023-06-19T04:22:36;99225.88;;;15.55;94.72
70103;BME280;57470;50.034;15.256;2023-06-19T04:25:02;99229.50;;;15.34;96.18
70103;BME280;57470;50.034;15.256;2023-06-19T04:27:27;99231.06;;;15.37;96.85
70103;BME280;57470;50.034;15.256;2023-06-19T04:29:53;99228.09;;;15.69;96.57
70103;BME280;57470;50.034;15.256;2023-06-19T04:32:18;99228.66;;;15.72;96.59
70103;BME280;57470;50.034;15.256;2023-06-19T04:34:44;99225.38;;;15.88;96.12
70103;BME280;57470;50.034;15.256;2023-06-19T04:37:11;99232.16;;;15.92;95.48
70103;BME280;57470;50.034;15.256;2023-06-19T04:39:36;99229.22;;;16.23;94.75
70103;BME280;57470;50.034;15.256;2023-06-19T04:42:01;99228.88;;;16.08;94.72
70103;BME280;57470;50.034;15.256;2023-06-19T04:44:27;99231.94;;;16.13;95.29
70103;BME280;57470;50.034;15.256;2023-06-19T04:46:52;99229.72;;;16.08;95.42
70103;BME280;57470;50.034;15.256;2023-06-19T04:49:26;99233.13;;;16.01;95.83
70103;BME280;57470;50.034;15.256;2023-06-19T04:51:51;99237.78;;;15.99;96.14
70103;BME280;57470;50.034;15.256;2023-06-19T04:54:16;99240.44;;;16.08;95.49
70103;BME280;57470;50.034;15.256;2023-06-19T04:56:42;99241.09;;;16.20;95.44
70103;BME280;57470;50.034;15.256;2023-06-19T04:59:07;99236.50;;;16.40;94.07
70103;BME280;57470;50.034;15.256;2023-06-19T05:01:32;99243.81;;;16.10;95.83
70103;BME280;57470;50.034;15.256;2023-06-19T05:03:58;99243.81;;;16.47;95.05
70103;BME280;57470;50.034;15.256;2023-06-19T05:06:25;99244.56;;;16.77;93.46
70103;BME280;57470;50.034;15.256;2023-06-19T05:08:51;99250.97;;;16.66;93.62
70103;BME280;57470;50.034;15.256;2023-06-19T05:11:17;99249.03;;;16.86;93.71
70103;BME280;57470;50.034;15.256;2023-06-19T05:13:43;99239.59;;;16.82;91.74
70103;BME280;57470;50.034;15.256;2023-06-19T05:16:08;99245.28;;;16.97;91.30
70103;BME280;57470;50.034;15.256;2023-06-19T05:18:34;99242.56;;;16.79;92.60
70103;BME280;57470;50.034;15.256;2023-06-19T05:20:59;99260.88;;;17.11;91.38
70103;BME280;57470;50.034;15.256;2023-06-19T05:23:24;99261.50;;;17.05;91.76
70103;BME280;57470;50.034;15.256;2023-06-19T05:25:50;99263.97;;;16.98;93.30
70103;BME280;57470;50.034;15.256;2023-06-19T05:28:15;99264.53;;;16.92;92.65
70103;BME280;57470;50.034;15.256;2023-06-19T05:30:41;99280.50;;;17.39;91.84
70103;BME280;57470;50.034;15.256;2023-06-19T05:33:06;99280.66;;;17.55;91.84
70103;BME280;57470;50.034;15.256;2023-06-19T05:35:31;99278.34;;;17.24;91.79
70103;BME280;57470;50.034;15.256;2023-06-19T05:37:57;99287.50;;;17.49;93.47
70103;BME280;57470;50.034;15.256;2023-06-19T05:40:23;99292.25;;;17.91;91.19
70103;BME280;57470;50.034;15.256;2023-06-19T05:42:48;99297.03;;;17.44;92.84
70103;BME280;57470;50.034;15.256;2023-06-19T05:45:13;99286.97;;;17.81;90.28
70103;BME280;57470;50.034;15.256;2023-06-19T05:47:39;99300.31;;;18.09;88.57
70103;BME280;57470;50.034;15.256;2023-06-19T05:50:04;99308.66;;;17.80;90.65
70103;BME280;57470;50.034;15.256;2023-06-19T05:52:30;99296.63;;;18.35;87.29
70103;BME280;57470;50.034;15.256;2023-06-19T05:54:55;99297.25;;;18.55;85.70
70103;BME280;57470;50.034;15.256;2023-06-19T05:57:23;99290.00;;;18.82;84.77
70103;BME280;57470;50.034;15.256;2023-06-19T05:59:48;99288.38;;;18.37;87.38
70103;BME280;57470;50.034;15.256;2023-06-19T06:02:14;99292.84;;;18.54;86.22
70103;BME280;57470;50.034;15.256;2023-06-19T06:04:40;99289.16;;;18.81;84.85
70103;BME280;57470;50.034;15.256;2023-06-19T06:07:06;99299.19;;;18.45;87.42
70103;BME280;57470;50.034;15.256;2023-06-19T06:09:31;99302.06;;;18.44;86.96
70103;BME280;57470;50.034;15.256;2023-06-19T06:11:58;99300.31;;;18.86;84.14
70103;BME280;57470;50.034;15.256;2023-06-19T06:14:23;99308.78;;;18.65;86.83
70103;BME280;57470;50.034;15.256;2023-06-19T06:16:49;99307.91;;;18.99;84.09
70103;BME280;57470;50.034;15.256;2023-06-19T06:19:14;99300.22;;;19.04;83.25
70103;BME280;57470;50.034;15.256;2023-06-19T06:21:40;99305.59;;;19.04;84.34
70103;BME280;57470;50.034;15.256;2023-06-19T06:24:06;99312.19;;;19.18;83.90
70103;BME280;57470;50.034;15.256;2023-06-19T06:26:31;99307.13;;;18.47;87.04
70103;BME280;57470;50.034;15.256;2023-06-19T06:28:56;99301.50;;;18.92;85.45
70103;BME280;57470;50.034;15.256;2023-06-19T06:31:22;99304.59;;;19.05;85.26
70103;BME280;57470;50.034;15.256;2023-06-19T06:33:48;99305.69;;;18.86;85.60
70103;BME280;57470;50.034;15.256;2023-06-19T06:36:18;99302.38;;;19.00;86.53
70103;BME280;57470;50.034;15.256;2023-06-19T06:38:43;99304.34;;;19.40;84.07
70103;BME280;57470;50.034;15.256;2023-06-19T06:41:09;99311.75;;;19.30;85.33
70103;BME280;57470;50.034;15.256;2023-06-19T06:43:34;99311.19;;;19.77;83.40
70103;BME280;57470;50.034;15.256;2023-06-19T06:46:00;99311.03;;;19.20;85.27
70103;BME280;57470;50.034;15.256;2023-06-19T06:48:25;99311.06;;;19.28;85.47
70103;BME280;57470;50.034;15.256;2023-06-19T06:50:51;99312.34;;;19.66;83.58
70103;BME280;57470;50.034;15.256;2023-06-19T06:53:27;99318.78;;;19.73;83.22
70103;BME280;57470;50.034;15.256;2023-06-19T06:55:59;99311.34;;;19.75;83.41
70103;BME280;57470;50.034;15.256;2023-06-19T06:58:25;99324.63;;;19.61;84.61
70103;BME280;57470;50.034;15.256;2023-06-19T07:00:51;99327.56;;;19.83;83.77
70103;BME280;57470;50.034;15.256;2023-06-19T07:03:17;99319.47;;;19.92;84.05
70103;BME280;57470;50.034;15.256;2023-06-19T07:05:43;99319.28;;;20.09;83.34
70103;BME280;57470;50.034;15.256;2023-06-19T07:08:08;99325.22;;;20.13;82.86
70103;BME280;57470;50.034;15.256;2023-06-19T07:10:34;99325.38;;;19.95;83.40
70103;BME280;57470;50.034;15.256;2023-06-19T07:12:59;99317.94;;;20.30;80.58
70103;BME280;57470;50.034;15.256;2023-06-19T07:15:24;99322.50;;;20.29;80.87
70103;BME280;57470;50.034;15.256;2023-06-19T07:17:50;99327.69;;;20.22;81.24
70103;BME280;57470;50.034;15.256;2023-06-19T07:20:15;99316.91;;;20.22;81.81
70103;BME280;57470;50.034;15.256;2023-06-19T07:22:42;99316.34;;;20.68;79.88
70103;BME280;57470;50.034;15.256;2023-06-19T07:25:09;99319.53;;;20.79;79.14
70103;BME280;57470;50.034;15.256;2023-06-19T07:27:36;99320.63;;;20.54;81.15
70103;BME280;57470;50.034;15.256;2023-06-19T07:30:01;99323.50;;;21.00;78.75
70103;BME280;57470;50.034;15.256;2023-06-19T07:32:27;99322.25;;;21.26;78.87
70103;BME280;57470;50.034;15.256;2023-06-19T07:34:53;99322.25;;;21.26;77.76
70103;BME280;57470;50.034;15.256;2023-06-19T07:37:19;99321.06;;;21.29;78.07
70103;BME280;57470;50.034;15.256;2023-06-19T07:39:48;99314.47;;;21.23;77.71
70103;BME280;57470;50.034;15.256;2023-06-19T07:42:15;99316.88;;;21.10;79.08
70103;BME280;57470;50.034;15.256;2023-06-19T07:44:41;99315.66;;;21.13;79.96
70103;BME280;57470;50.034;15.256;2023-06-19T07:47:07;99317.22;;;21.07;79.31
70103;BME280;57470;50.034;15.256;2023-06-19T07:49:32;99325.13;;;21.17;78.87
70103;BME280;57470;50.034;15.256;2023-06-19T07:51:58;99323.44;;;21.55;79.11
70103;BME280;57470;50.034;15.256;2023-06-19T07:54:23;99323.31;;;21.71;77.49
70103;BME280;57470;50.034;15.256;2023-06-19T07:56:49;99319.97;;;21.92;76.94
70103;BME280;57470;50.034;15.256;2023-06-19T07:59:14;99326.66;;;22.04;76.54
70103;BME280;57470;50.034;15.256;2023-06-19T08:01:40;99330.56;;;22.39;75.21
70103;BME280;57470;50.034;15.256;2023-06-19T08:04:06;99324.16;;;22.55;75.32
70103;BME280;57470;50.034;15.256;2023-06-19T08:06:31;99327.81;;;22.62;74.65
70103;BME280;57470;50.034;15.256;2023-06-19T08:08:56;99333.53;;;22.29;75.09
70103;BME280;57470;50.034;15.256;2023-06-19T08:11:22;99317.41;;;22.51;75.21
70103;BME280;57470;50.034;15.256;2023-06-19T08:13:48;99322.75;;;23.17;72.46
70103;BME280;57470;50.034;15.256;2023-06-19T08:16:13;99315.78;;;23.44;72.11
70103;BME280;57470;50.034;15.256;2023-06-19T08:18:39;99325.28;;;23.19;72.24
70103;BME280;57470;50.034;15.256;2023-06-19T08:21:04;99326.38;;;23.54;71.49
70103;BME280;57470;50.034;15.256;2023-06-19T08:23:30;99329.75;;;23.99;70.90
70103;BME280;57470;50.034;15.256;2023-06-19T08:25:55;99327.59;;;23.87;71.72
70103;BME280;57470;50.034;15.256;2023-06-19T08:28:20;99336.38;;;24.32;68.09
70103;BME280;57470;50.034;15.256;2023-06-19T08:30:46;99330.72;;;24.61;67.94
70103;BME280;57470;50.034;15.256;2023-06-19T08:33:13;99336.66;;;24.44;67.16
70103;BME280;57470;50.034;15.256;2023-06-19T08:35:38;99342.06;;;23.94;70.17
70103;BME280;57470;50.034;15.256;2023-06-19T08:38:04;99339.50;;;23.50;69.16
70103;BME280;57470;50.034;15.256;2023-06-19T08:40:29;99335.09;;;23.85;67.87
70103;BME280;57470;50.034;15.256;2023-06-19T08:42:56;99332.88;;;23.74;69.58
70103;BME280;57470;50.034;15.256;2023-06-19T08:45:22;99331.00;;;23.96;67.55
70103;BME280;57470;50.034;15.256;2023-06-19T08:47:48;99320.16;;;24.45;66.44
70103;BME280;57470;50.034;15.256;2023-06-19T08:50:15;99318.47;;;24.72;65.30
70103;BME280;57470;50.034;15.256;2023-06-19T08:52:40;99329.03;;;24.88;64.24
70103;BME280;57470;50.034;15.256;2023-06-19T08:55:06;99328.00;;;24.89;64.41
70103;BME280;57470;50.034;15.256;2023-06-19T08:57:38;99335.44;;;25.02;65.10
70103;BME280;57470;50.034;15.256;2023-06-19T09:00:05;99335.41;;;24.95;65.32
70103;BME280;57470;50.034;15.256;2023-06-19T09:02:43;99328.25;;;25.35;62.41
70103;BME280;57470;50.034;15.256;2023-06-19T09:05:16;99324.38;;;25.10;61.63
70103;BME280;57470;50.034;15.256;2023-06-19T09:07:53;99330.34;;;25.33;61.34
70103;BME280;57470;50.034;15.256;2023-06-19T09:10:19;99327.69;;;25.53;62.45
70103;BME280;57470;50.034;15.256;2023-06-19T09:13:03;99326.84;;;25.46;63.90
70103;BME280;57470;50.034;15.256;2023-06-19T09:15:33;99323.94;;;25.07;66.67
70103;BME280;57470;50.034;15.256;2023-06-19T09:18:10;99316.25;;;25.77;63.23
70103;BME280;57470;50.034;15.256;2023-06-19T09:20:41;99312.94;;;25.95;62.02
70103;BME280;57470;50.034;15.256;2023-06-19T09:23:11;99318.41;;;26.22;61.08
70103;BME280;57470;50.034;15.256;2023-06-19T09:25:53;99312.53;;;26.18;61.82
70103;BME280;57470;50.034;15.256;2023-06-19T09:28:26;99322.84;;;26.36;63.16
70103;BME280;57470;50.034;15.256;2023-06-19T09:31:02;99321.38;;;26.53;61.40
70103;BME280;57470;50.034;15.256;2023-06-19T09:33:30;99319.88;;;26.70;61.26
70103;BME280;57470;50.034;15.256;2023-06-19T09:35:59;99314.78;;;27.07;61.04
70103;BME280;57470;50.034;15.256;2023-06-19T09:38:30;99314.84;;;26.01;63.53
70103;BME280;57470;50.034;15.256;2023-06-19T09:40:57;99314.63;;;26.82;62.23
70103;BME280;57470;50.034;15.256;2023-06-19T09:43:26;99311.19;;;27.13;60.03
70103;BME280;57470;50.034;15.256;2023-06-19T09:45:55;99309.38;;;26.80;59.86
70103;BME280;57470;50.034;15.256;2023-06-19T09:48:29;99306.81;;;26.99;59.39
70103;BME280;57470;50.034;15.256;2023-06-19T09:51:00;99303.88;;;26.94;59.11
70103;BME280;57470;50.034;15.256;2023-06-19T09:53:26;99303.03;;;26.86;61.72
70103;BME280;57470;50.034;15.256;2023-06-19T09:55:52;99308.50;;;27.00;58.72
70103;BME280;57470;50.034;15.256;2023-06-19T09:58:19;99303.50;;;26.83;59.46
70103;BME280;57470;50.034;15.256;2023-06-19T10:00:46;99311.25;;;26.93;55.94
70103;BME280;57470;50.034;15.256;2023-06-19T10:03:13;99298.50;;;27.32;56.54
70103;BME280;57470;50.034;15.256;2023-06-19T10:05:39;99304.41;;;27.29;57.51
70103;BME280;57470;50.034;15.256;2023-06-19T10:08:05;99292.78;;;27.40;56.75
70103;BME280;57470;50.034;15.256;2023-06-19T10:10:31;99287.47;;;27.58;58.31
70103;BME280;57470;50.034;15.256;2023-06-19T10:13:13;99293.28;;;27.23;61.70
70103;BME280;57470;50.034;15.256;2023-06-19T10:15:43;99296.06;;;27.17;61.73
70103;BME280;57470;50.034;15.256;2023-06-19T10:18:17;99296.81;;;27.75;59.01
70103;BME280;57470;50.034;15.256;2023-06-19T10:20:43;99285.19;;;27.86;55.13
70103;BME280;57470;50.034;15.256;2023-06-19T10:23:15;99287.56;;;28.08;57.67
70103;BME280;57470;50.034;15.256;2023-06-19T10:25:45;99288.63;;;27.75;57.18
70103;BME280;57470;50.034;15.256;2023-06-19T10:28:24;99293.41;;;28.18;56.62
70103;BME280;57470;50.034;15.256;2023-06-19T10:31:03;99289.19;;;28.15;55.72
70103;BME280;57470;50.034;15.256;2023-06-19T10:33:30;99291.50;;;27.55;59.87
70103;BME280;57470;50.034;15.256;2023-06-19T10:35:58;99283.84;;;27.26;59.71
70103;BME280;57470;50.034;15.256;2023-06-19T10:38:25;99281.81;;;27.84;58.38
70103;BME280;57470;50.034;15.256;2023-06-19T10:40:51;99286.81;;;27.94;58.27
70103;BME280;57470;50.034;15.256;2023-06-19T10:43:24;99278.91;;;26.97;59.37
70103;BME280;57470;50.034;15.256;2023-06-19T10:45:51;99285.81;;;26.99;60.46
70103;BME280;57470;50.034;15.256;2023-06-19T10:48:20;99282.75;;;26.56;61.59
70103;BME280;57470;50.034;15.256;2023-06-19T10:50:47;99273.03;;;27.00;59.01
70103;BME280;57470;50.034;15.256;2023-06-19T10:53:26;99267.88;;;26.32;60.73
70103;BME280;57470;50.034;15.256;2023-06-19T10:55:56;99271.78;;;26.82;60.69
70103;BME280;57470;50.034;15.256;2023-06-19T10:58:22;99270.72;;;26.97;59.56
70103;BME280;57470;50.034;15.256;2023-06-19T11:00:47;99272.75;;;27.59;57.39
70103;BME280;57470;50.034;15.256;2023-06-19T11:03:13;99265.50;;;28.02;57.20
70103;BME280;57470;50.034;15.256;2023-06-19T11:05:43;99266.94;;;26.98;59.41
70103;BME280;57470;50.034;15.256;2023-06-19T11:08:09;99280.13;;;27.90;57.94
70103;BME280;57470;50.034;15.256;2023-06-19T11:10:34;99271.44;;;27.68;58.47
70103;BME280;57470;50.034;15.256;2023-06-19T11:13:00;99264.47;;;27.34;58.26
70103;BME280;57470;50.034;15.256;2023-06-19T11:15:34;99278.16;;;27.66;57.78
70103;BME280;57470;50.034;15.256;2023-06-19T11:18:01;99275.53;;;27.46;58.39
70103;BME280;57470;50.034;15.256;2023-06-19T11:20:27;99270.53;;;26.92;60.18
70103;BME280;57470;50.034;15.256;2023-06-19T11:22:58;99261.34;;;26.60;61.35
70103;BME280;57470;50.034;15.256;2023-06-19T11:25:37;99273.19;;;27.87;58.71
70103;BME280;57470;50.034;15.256;2023-06-19T11:28:26;99261.84;;;27.84;59.60
70103;BME280;57470;50.034;15.256;2023-06-19T11:31:02;99258.97;;;28.53;55.64
70103;BME280;57470;50.034;15.256;2023-06-19T11:33:28;99268.66;;;27.75;59.18
70103;BME280;57470;50.034;15.256;2023-06-19T11:35:59;99265.22;;;28.17;55.87
70103;BME280;57470;50.034;15.256;2023-06-19T11:38:26;99261.84;;;28.40;57.39
70103;BME280;57470;50.034;15.256;2023-06-19T11:40:54;99258.44;;;28.20;55.50
70103;BME280;57470;50.034;15.256;2023-06-19T11:43:27;99251.84;;;28.52;54.50
70103;BME280;57470;50.034;15.256;2023-06-19T11:45:53;99260.13;;;28.64;55.15
70103;BME280;57470;50.034;15.256;2023-06-19T11:48:25;99248.91;;;28.47;56.34
70103;BME280;57470;50.034;15.256;2023-06-19T11:50:51;99246.53;;;28.75;55.61
70103;BME280;57470;50.034;15.256;2023-06-19T11:53:18;99245.88;;;28.98;54.27
70103;BME280;57470;50.034;15.256;2023-06-19T11:55:44;99241.72;;;29.26;53.38
70103;BME280;57470;50.034;15.256;2023-06-19T11:58:10;99242.78;;;29.43;56.65
70103;BME280;57470;50.034;15.256;2023-06-19T12:00:38;99237.75;;;28.49;55.70
70103;BME280;57470;50.034;15.256;2023-06-19T12:03:04;99233.06;;;29.10;55.57
70103;BME280;57470;50.034;15.256;2023-06-19T12:05:29;99235.13;;;29.15;57.18
70103;BME280;57470;50.034;15.256;2023-06-19T12:07:55;99241.00;;;29.78;53.88
70103;BME280;57470;50.034;15.256;2023-06-19T12:10:20;99239.88;;;29.38;56.67
70103;BME280;57470;50.034;15.256;2023-06-19T12:12:46;99234.00;;;29.04;56.59
70103;BME280;57470;50.034;15.256;2023-06-19T12:15:11;99239.03;;;29.07;55.80
70103;BME280;57470;50.034;15.256;2023-06-19T12:17:36;99232.22;;;28.73;56.07
70103;BME280;57470;50.034;15.256;2023-06-19T12:20:02;99226.38;;;29.06;57.67
70103;BME280;57470;50.034;15.256;2023-06-19T12:22:32;99221.25;;;29.58;52.29
70103;BME280;57470;50.034;15.256;2023-06-19T12:24:57;99223.69;;;29.78;52.13
70103;BME280;57470;50.034;15.256;2023-06-19T12:27:23;99220.06;;;30.07;51.63
70103;BME280;57470;50.034;15.256;2023-06-19T12:29:48;99227.06;;;29.92;52.80
70103;BME280;57470;50.034;15.256;2023-06-19T12:32:13;99211.44;;;29.39;55.54
70103;BME280;57470;50.034;15.256;2023-06-19T12:34:39;99218.66;;;29.33;53.41
70103;BME280;57470;50.034;15.256;2023-06-19T12:37:05;99212.19;;;30.11;52.14
70103;BME280;57470;50.034;15.256;2023-06-19T12:39:32;99211.16;;;30.24;49.16
70103;BME280;57470;50.034;15.256;2023-06-19T12:41:58;99213.88;;;30.35;49.76
70103;BME280;57470;50.034;15.256;2023-06-19T12:44:23;99207.78;;;30.45;49.99
70103;BME280;57470;50.034;15.256;2023-06-19T12:46:50;99209.09;;;30.66;50.17
70103;BME280;57470;50.034;15.256;2023-06-19T12:49:15;99228.78;;;30.16;50.80
70103;BME280;57470;50.034;15.256;2023-06-19T12:51:40;99219.72;;;30.50;48.94